sensor_id;sensor_type;location;lat;lon;timestamp;P1;durP1;ratioP1;P2;durP2;ratioP2
36191;SDS011;22233;42.708;23.360;2022-08-04T00:01:07;10.98;;;7.57;;
36191;SDS011;22233;42.708;23.360;2022-08-04T00:03:42;8.50;;;7.20;;
36191;SDS011;22233;42.708;23.360;2022-08-04T00:08:44;8.68;;;6.60;;
36191;SDS011;22233;42.708;23.360;2022-08-04T00:11:21;8.63;;;7.07;;
36191;SDS011;22233;42.708;23.360;2022-08-04T00:13:50;9.15;;;7.03;;
36191;SDS011;22233;42.708;23.360;2022-08-04T00:16:36;8.40;;;7.60;;
36191;SDS011;22233;42.708;23.360;2022-08-04T00:21:41;9.13;;;6.88;;
36191;SDS011;22233;42.708;23.360;2022-08-04T00:24:12;8.25;;;6.63;;
36191;SDS011;22233;42.708;23.360;2022-08-04T00:26:39;8.45;;;6.30;;
36191;SDS011;22233;42.708;23.360;2022-08-04T00:29:05;6.90;;;6.30;;
36191;SDS011;22233;42.708;23.360;2022-08-04T00:31:31;8.05;;;7.35;;
36191;SDS011;22233;42.708;23.360;2022-08-04T00:33:56;9.43;;;7.03;;
36191;SDS011;22233;42.708;23.360;2022-08-04T00:36:22;9.88;;;6.85;;
36191;SDS011;22233;42.708;23.360;2022-08-04T00:38:48;8.30;;;7.20;;
36191;SDS011;22233;42.708;23.360;2022-08-04T00:42:00;7.50;;;6.78;;
36191;SDS011;22233;42.708;23.360;2022-08-04T00:47:35;8.95;;;7.13;;
36191;SDS011;22233;42.708;23.360;2022-08-04T01:13:11;9.50;;;7.10;;
36191;SDS011;22233;42.708;23.360;2022-08-04T01:18:16;9.52;;;6.40;;
36191;SDS011;22233;42.708;23.360;2022-08-04T01:20:50;7.93;;;7.03;;
36191;SDS011;22233;42.708;23.360;2022-08-04T01:29:01;8.75;;;6.72;;
36191;SDS011;22233;42.708;23.360;2022-08-04T01:34:06;7.47;;;6.80;;
36191;SDS011;22233;42.708;23.360;2022-08-04T01:36:36;7.53;;;6.93;;
36191;SDS011;22233;42.708;23.360;2022-08-04T01:39:09;7.88;;;7.18;;
36191;SDS011;22233;42.708;23.360;2022-08-04T01:41:54;7.72;;;6.95;;
36191;SDS011;22233;42.708;23.360;2022-08-04T01:44:20;8.23;;;6.82;;
36191;SDS011;22233;42.708;23.360;2022-08-04T01:46:49;7.07;;;6.47;;
36191;SDS011;22233;42.708;23.360;2022-08-04T01:49:16;9.25;;;6.32;;
36191;SDS011;22233;42.708;23.360;2022-08-04T01:51:45;8.13;;;7.32;;
36191;SDS011;22233;42.708;23.360;2022-08-04T01:54:14;11.52;;;7.10;;
36191;SDS011;22233;42.708;23.360;2022-08-04T01:56:42;9.25;;;8.00;;
36191;SDS011;22233;42.708;23.360;2022-08-04T01:59:08;9.70;;;8.50;;
36191;SDS011;22233;42.708;23.360;2022-08-04T02:01:39;9.35;;;8.45;;
36191;SDS011;22233;42.708;23.360;2022-08-04T02:04:04;9.43;;;8.52;;
36191;SDS011;22233;42.708;23.360;2022-08-04T02:12:02;8.73;;;7.95;;
36191;SDS011;22233;42.708;23.360;2022-08-04T02:14:30;9.77;;;7.97;;
36191;SDS011;22233;42.708;23.360;2022-08-04T02:17:14;10.93;;;7.78;;
36191;SDS011;22233;42.708;23.360;2022-08-04T02:22:24;9.10;;;8.20;;
36191;SDS011;22233;42.708;23.360;2022-08-04T02:25:08;9.00;;;8.15;;
36191;SDS011;22233;42.708;23.360;2022-08-04T02:30:23;10.90;;;7.95;;
36191;SDS011;22233;42.708;23.360;2022-08-04T02:32:55;10.65;;;7.43;;
36191;SDS011;22233;42.708;23.360;2022-08-04T02:35:26;9.95;;;7.72;;
36191;SDS011;22233;42.708;23.360;2022-08-04T02:38:15;8.73;;;7.82;;
36191;SDS011;22233;42.708;23.360;2022-08-04T02:40:48;13.35;;;8.63;;
36191;SDS011;22233;42.708;23.360;2022-08-04T02:43:16;9.30;;;8.30;;
36191;SDS011;22233;42.708;23.360;2022-08-04T02:45:44;8.80;;;7.90;;
36191;SDS011;22233;42.708;23.360;2022-08-04T02:48:12;8.88;;;8.02;;
36191;SDS011;22233;42.708;23.360;2022-08-04T02:50:40;8.80;;;7.47;;
36191;SDS011;22233;42.708;23.360;2022-08-04T02:53:08;10.23;;;8.63;;
36191;SDS011;22233;42.708;23.360;2022-08-04T02:55:39;9.73;;;8.88;;
36191;SDS011;22233;42.708;23.360;2022-08-04T02:58:08;9.82;;;8.77;;
36191;SDS011;22233;42.708;23.360;2022-08-04T03:00:34;9.20;;;8.32;;
36191;SDS011;22233;42.708;23.360;2022-08-04T03:20:06;11.20;;;8.32;;
36191;SDS011;22233;42.708;23.360;2022-08-04T03:25:59;11.50;;;9.32;;
36191;SDS011;22233;42.708;23.360;2022-08-04T03:28:49;11.88;;;8.52;;
36191;SDS011;22233;42.708;23.360;2022-08-04T03:34:40;22.40;;;10.48;;
36191;SDS011;22233;42.708;23.360;2022-08-04T04:00:05;12.23;;;10.27;;
36191;SDS011;22233;42.708;23.360;2022-08-04T04:05:47;11.55;;;8.77;;
36191;SDS011;22233;42.708;23.360;2022-08-04T04:16:46;11.70;;;8.93;;
36191;SDS011;22233;42.708;23.360;2022-08-04T04:33:16;10.65;;;9.68;;
36191;SDS011;22233;42.708;23.360;2022-08-04T04:41:15;10.98;;;9.85;;
36191;SDS011;22233;42.708;23.360;2022-08-04T04:52:39;16.75;;;10.75;;
36191;SDS011;22233;42.708;23.360;2022-08-04T04:55:16;13.63;;;10.32;;
36191;SDS011;22233;42.708;23.360;2022-08-04T04:57:45;19.67;;;17.63;;
36191;SDS011;22233;42.708;23.360;2022-08-04T05:00:15;28.73;;;25.85;;
36191;SDS011;22233;42.708;23.360;2022-08-04T05:14:34;20.38;;;15.35;;
36191;SDS011;22233;42.708;23.360;2022-08-04T05:17:17;17.92;;;14.07;;
36191;SDS011;22233;42.708;23.360;2022-08-04T05:19:52;24.02;;;16.13;;
36191;SDS011;22233;42.708;23.360;2022-08-04T05:22:24;20.08;;;13.18;;
36191;SDS011;22233;42.708;23.360;2022-08-04T05:25:03;16.90;;;12.52;;
36191;SDS011;22233;42.708;23.360;2022-08-04T05:27:37;21.02;;;12.30;;
36191;SDS011;22233;42.708;23.360;2022-08-04T05:30:06;14.40;;;11.90;;
36191;SDS011;22233;42.708;23.360;2022-08-04T05:32:43;13.02;;;11.57;;
36191;SDS011;22233;42.708;23.360;2022-08-04T05:35:33;16.17;;;14.38;;
36191;SDS011;22233;42.708;23.360;2022-08-04T05:38:06;15.38;;;13.85;;
36191;SDS011;22233;42.708;23.360;2022-08-04T05:40:36;15.05;;;12.85;;
36191;SDS011;22233;42.708;23.360;2022-08-04T05:43:03;13.93;;;11.65;;
36191;SDS011;22233;42.708;23.360;2022-08-04T05:45:31;14.73;;;11.60;;
36191;SDS011;22233;42.708;23.360;2022-08-04T05:48:02;14.35;;;12.13;;
36191;SDS011;22233;42.708;23.360;2022-08-04T05:50:31;15.85;;;11.32;;
36191;SDS011;22233;42.708;23.360;2022-08-04T05:52:58;17.73;;;11.27;;
36191;SDS011;22233;42.708;23.360;2022-08-04T05:55:25;16.95;;;11.60;;
36191;SDS011;22233;42.708;23.360;2022-08-04T05:57:52;12.82;;;10.13;;
36191;SDS011;22233;42.708;23.360;2022-08-04T06:02:46;12.27;;;10.95;;
36191;SDS011;22233;42.708;23.360;2022-08-04T06:05:13;14.48;;;10.98;;
36191;SDS011;22233;42.708;23.360;2022-08-04T06:07:41;15.23;;;11.07;;
36191;SDS011;22233;42.708;23.360;2022-08-04T06:10:08;11.85;;;9.85;;
36191;SDS011;22233;42.708;23.360;2022-08-04T06:12:46;12.35;;;11.10;;
36191;SDS011;22233;42.708;23.360;2022-08-04T06:15:20;13.98;;;11.43;;
36191;SDS011;22233;42.708;23.360;2022-08-04T06:17:49;16.20;;;11.45;;
36191;SDS011;22233;42.708;23.360;2022-08-04T06:20:19;15.32;;;11.70;;
36191;SDS011;22233;42.708;23.360;2022-08-04T06:22:49;12.50;;;10.93;;
36191;SDS011;22233;42.708;23.360;2022-08-04T06:25:19;15.07;;;11.13;;
36191;SDS011;22233;42.708;23.360;2022-08-04T06:27:47;13.50;;;11.52;;
36191;SDS011;22233;42.708;23.360;2022-08-04T06:30:14;19.40;;;13.77;;
36191;SDS011;22233;42.708;23.360;2022-08-04T06:32:43;22.67;;;12.52;;
36191;SDS011;22233;42.708;23.360;2022-08-04T06:35:19;13.35;;;10.98;;
36191;SDS011;22233;42.708;23.360;2022-08-04T06:37:46;15.63;;;12.98;;
36191;SDS011;22233;42.708;23.360;2022-08-04T06:40:13;14.35;;;12.73;;
36191;SDS011;22233;42.708;23.360;2022-08-04T06:42:40;14.10;;;12.65;;
36191;SDS011;22233;42.708;23.360;2022-08-04T06:45:07;18.52;;;12.52;;
36191;SDS011;22233;42.708;23.360;2022-08-04T06:47:38;17.23;;;14.32;;
36191;SDS011;22233;42.708;23.360;2022-08-04T06:50:06;16.38;;;12.45;;
36191;SDS011;22233;42.708;23.360;2022-08-04T06:52:33;18.38;;;13.73;;
36191;SDS011;22233;42.708;23.360;2022-08-04T06:54:59;14.98;;;13.50;;
36191;SDS011;22233;42.708;23.360;2022-08-04T06:57:28;18.95;;;15.20;;
36191;SDS011;22233;42.708;23.360;2022-08-04T07:00:10;18.92;;;16.92;;
36191;SDS011;22233;42.708;23.360;2022-08-04T07:02:43;17.35;;;15.52;;
36191;SDS011;22233;42.708;23.360;2022-08-04T07:05:10;22.35;;;15.35;;
36191;SDS011;22233;42.708;23.360;2022-08-04T07:07:36;24.65;;;15.90;;
36191;SDS011;22233;42.708;23.360;2022-08-04T07:10:03;19.80;;;15.48;;
36191;SDS011;22233;42.708;23.360;2022-08-04T07:12:30;19.40;;;15.85;;
36191;SDS011;22233;42.708;23.360;2022-08-04T07:14:56;19.92;;;14.98;;
36191;SDS011;22233;42.708;23.360;2022-08-04T07:17:22;18.23;;;14.98;;
36191;SDS011;22233;42.708;23.360;2022-08-04T07:19:48;18.02;;;14.88;;
36191;SDS011;22233;42.708;23.360;2022-08-04T07:22:14;18.42;;;14.77;;
36191;SDS011;22233;42.708;23.360;2022-08-04T07:24:40;17.67;;;14.32;;
36191;SDS011;22233;42.708;23.360;2022-08-04T07:27:06;17.10;;;13.85;;
36191;SDS011;22233;42.708;23.360;2022-08-04T07:29:32;19.60;;;13.77;;
36191;SDS011;22233;42.708;23.360;2022-08-04T07:31:59;22.02;;;15.60;;
36191;SDS011;22233;42.708;23.360;2022-08-04T07:34:25;21.05;;;14.82;;
36191;SDS011;22233;42.708;23.360;2022-08-04T07:39:19;19.88;;;14.98;;
36191;SDS011;22233;42.708;23.360;2022-08-04T07:41:46;20.42;;;14.85;;
36191;SDS011;22233;42.708;23.360;2022-08-04T07:44:13;17.83;;;14.23;;
36191;SDS011;22233;42.708;23.360;2022-08-04T07:49:05;19.48;;;13.52;;
36191;SDS011;22233;42.708;23.360;2022-08-04T07:51:32;21.65;;;13.68;;
36191;SDS011;22233;42.708;23.360;2022-08-04T07:53:59;19.08;;;14.25;;
36191;SDS011;22233;42.708;23.360;2022-08-04T07:56:28;14.00;;;11.70;;
36191;SDS011;22233;42.708;23.360;2022-08-04T07:58:54;15.25;;;11.95;;
36191;SDS011;22233;42.708;23.360;2022-08-04T08:01:20;14.55;;;10.18;;
36191;SDS011;22233;42.708;23.360;2022-08-04T08:03:46;17.90;;;11.60;;
36191;SDS011;22233;42.708;23.360;2022-08-04T08:06:13;17.63;;;11.63;;
36191;SDS011;22233;42.708;23.360;2022-08-04T08:08:39;16.58;;;12.23;;
36191;SDS011;22233;42.708;23.360;2022-08-04T08:11:07;17.17;;;12.52;;
36191;SDS011;22233;42.708;23.360;2022-08-04T08:13:33;15.27;;;11.50;;
36191;SDS011;22233;42.708;23.360;2022-08-04T08:16:00;10.57;;;9.48;;
36191;SDS011;22233;42.708;23.360;2022-08-04T08:18:27;9.00;;;8.10;;
36191;SDS011;22233;42.708;23.360;2022-08-04T08:20:53;9.65;;;8.43;;
36191;SDS011;22233;42.708;23.360;2022-08-04T08:23:19;9.48;;;8.00;;
36191;SDS011;22233;42.708;23.360;2022-08-04T08:25:45;12.00;;;9.80;;
36191;SDS011;22233;42.708;23.360;2022-08-04T08:28:10;19.17;;;9.98;;
36191;SDS011;22233;42.708;23.360;2022-08-04T08:30:36;12.57;;;10.02;;
36191;SDS011;22233;42.708;23.360;2022-08-04T08:33:05;12.57;;;9.07;;
36191;SDS011;22233;42.708;23.360;2022-08-04T08:41:12;12.63;;;8.90;;
36191;SDS011;22233;42.708;23.360;2022-08-04T09:00:02;10.52;;;8.00;;
36191;SDS011;22233;42.708;23.360;2022-08-04T09:02:43;11.18;;;7.63;;
36191;SDS011;22233;42.708;23.360;2022-08-04T09:11:21;9.95;;;6.63;;
36191;SDS011;22233;42.708;23.360;2022-08-04T09:16:38;11.27;;;6.03;;
36191;SDS011;22233;42.708;23.360;2022-08-04T09:19:13;8.10;;;5.82;;
36191;SDS011;22233;42.708;23.360;2022-08-04T09:24:20;7.32;;;3.97;;
36191;SDS011;22233;42.708;23.360;2022-08-04T09:27:04;5.90;;;4.25;;
36191;SDS011;22233;42.708;23.360;2022-08-04T09:29:40;6.30;;;4.13;;
36191;SDS011;22233;42.708;23.360;2022-08-04T09:34:50;7.97;;;3.90;;
36191;SDS011;22233;42.708;23.360;2022-08-04T09:37:26;5.05;;;4.25;;
36191;SDS011;22233;42.708;23.360;2022-08-04T09:40:35;8.43;;;3.80;;
36191;SDS011;22233;42.708;23.360;2022-08-04T09:46:01;10.40;;;4.20;;
36191;SDS011;22233;42.708;23.360;2022-08-04T09:48:42;10.10;;;4.55;;
36191;SDS011;22233;42.708;23.360;2022-08-04T09:51:15;7.72;;;4.38;;
36191;SDS011;22233;42.708;23.360;2022-08-04T09:53:52;6.85;;;4.40;;
36191;SDS011;22233;42.708;23.360;2022-08-04T09:56:31;13.48;;;4.75;;
36191;SDS011;22233;42.708;23.360;2022-08-04T10:01:45;15.40;;;6.13;;
36191;SDS011;22233;42.708;23.360;2022-08-04T10:04:18;13.05;;;5.78;;
36191;SDS011;22233;42.708;23.360;2022-08-04T10:12:15;8.48;;;4.78;;
36191;SDS011;22233;42.708;23.360;2022-08-04T10:15:05;8.35;;;4.40;;
36191;SDS011;22233;42.708;23.360;2022-08-04T10:29:02;5.97;;;3.30;;
36191;SDS011;22233;42.708;23.360;2022-08-04T10:31:34;5.85;;;3.28;;
36191;SDS011;22233;42.708;23.360;2022-08-04T10:34:21;4.07;;;3.13;;
36191;SDS011;22233;42.708;23.360;2022-08-04T10:42:56;9.63;;;3.10;;
36191;SDS011;22233;42.708;23.360;2022-08-04T10:45:22;5.55;;;2.70;;
36191;SDS011;22233;42.708;23.360;2022-08-04T10:50:44;6.10;;;3.65;;
36191;SDS011;22233;42.708;23.360;2022-08-04T10:53:18;3.50;;;3.20;;
36191;SDS011;22233;42.708;23.360;2022-08-04T10:55:51;5.78;;;3.20;;
36191;SDS011;22233;42.708;23.360;2022-08-04T10:58:24;4.55;;;2.67;;
36191;SDS011;22233;42.708;23.360;2022-08-04T11:00:55;4.90;;;2.63;;
36191;SDS011;22233;42.708;23.360;2022-08-04T11:03:25;5.15;;;3.08;;
36191;SDS011;22233;42.708;23.360;2022-08-04T11:06:02;3.15;;;2.38;;
36191;SDS011;22233;42.708;23.360;2022-08-04T11:08:41;2.70;;;2.42;;
36191;SDS011;22233;42.708;23.360;2022-08-04T11:11:12;3.20;;;2.70;;
36191;SDS011;22233;42.708;23.360;2022-08-04T11:13:46;8.30;;;2.78;;
36191;SDS011;22233;42.708;23.360;2022-08-04T11:16:23;3.00;;;2.78;;
36191;SDS011;22233;42.708;23.360;2022-08-04T11:21:46;3.90;;;2.97;;
36191;SDS011;22233;42.708;23.360;2022-08-04T11:24:20;4.00;;;2.90;;
36191;SDS011;22233;42.708;23.360;2022-08-04T11:26:54;6.07;;;2.60;;
36191;SDS011;22233;42.708;23.360;2022-08-04T11:32:23;5.20;;;2.70;;
36191;SDS011;22233;42.708;23.360;2022-08-04T11:34:56;4.38;;;2.72;;
36191;SDS011;22233;42.708;23.360;2022-08-04T11:37:44;4.82;;;2.67;;
36191;SDS011;22233;42.708;23.360;2022-08-04T11:40:22;6.50;;;2.80;;
36191;SDS011;22233;42.708;23.360;2022-08-04T11:42:54;4.80;;;2.83;;
36191;SDS011;22233;42.708;23.360;2022-08-04T11:45:33;3.92;;;2.50;;
36191;SDS011;22233;42.708;23.360;2022-08-04T11:48:04;3.75;;;2.80;;
36191;SDS011;22233;42.708;23.360;2022-08-04T11:50:38;3.42;;;2.90;;
36191;SDS011;22233;42.708;23.360;2022-08-04T11:53:15;3.53;;;2.90;;
36191;SDS011;22233;42.708;23.360;2022-08-04T11:55:45;7.80;;;2.92;;
36191;SDS011;22233;42.708;23.360;2022-08-04T11:58:13;4.75;;;2.80;;
36191;SDS011;22233;42.708;23.360;2022-08-04T12:00:41;4.57;;;2.85;;
36191;SDS011;22233;42.708;23.360;2022-08-04T12:14:29;4.30;;;2.50;;
36191;SDS011;22233;42.708;23.360;2022-08-04T12:17:04;2.95;;;2.28;;
36191;SDS011;22233;42.708;23.360;2022-08-04T12:19:43;3.00;;;2.33;;
36191;SDS011;22233;42.708;23.360;2022-08-04T12:22:15;4.03;;;2.22;;
36191;SDS011;22233;42.708;23.360;2022-08-04T12:24:47;3.00;;;2.25;;
36191;SDS011;22233;42.708;23.360;2022-08-04T12:27:19;3.88;;;2.45;;
36191;SDS011;22233;42.708;23.360;2022-08-04T12:29:48;4.30;;;2.13;;
36191;SDS011;22233;42.708;23.360;2022-08-04T12:32:30;5.22;;;3.20;;
36191;SDS011;22233;42.708;23.360;2022-08-04T12:40:24;2.90;;;2.60;;
36191;SDS011;22233;42.708;23.360;2022-08-04T12:45:29;2.92;;;2.72;;
36191;SDS011;22233;42.708;23.360;2022-08-04T12:47:57;3.00;;;2.60;;
36191;SDS011;22233;42.708;23.360;2022-08-04T12:50:24;2.85;;;2.65;;
36191;SDS011;22233;42.708;23.360;2022-08-04T12:52:50;2.83;;;2.57;;
36191;SDS011;22233;42.708;23.360;2022-08-04T12:55:21;4.22;;;2.47;;
36191;SDS011;22233;42.708;23.360;2022-08-04T12:57:51;5.47;;;2.45;;
36191;SDS011;22233;42.708;23.360;2022-08-04T13:00:52;3.58;;;2.70;;
36191;SDS011;22233;42.708;23.360;2022-08-04T13:03:16;3.10;;;2.55;;
36191;SDS011;22233;42.708;23.360;2022-08-04T13:05:44;3.35;;;2.08;;
36191;SDS011;22233;42.708;23.360;2022-08-04T13:08:13;6.88;;;3.20;;
36191;SDS011;22233;42.708;23.360;2022-08-04T13:10:45;7.35;;;3.20;;
36191;SDS011;22233;42.708;23.360;2022-08-04T13:13:23;3.08;;;2.78;;
36191;SDS011;22233;42.708;23.360;2022-08-04T13:15:58;4.00;;;2.72;;
36191;SDS011;22233;42.708;23.360;2022-08-04T13:18:30;2.85;;;2.42;;
36191;SDS011;22233;42.708;23.360;2022-08-04T13:21:17;3.75;;;2.70;;
36191;SDS011;22233;42.708;23.360;2022-08-04T13:23:50;5.00;;;3.10;;
36191;SDS011;22233;42.708;23.360;2022-08-04T13:26:19;4.00;;;2.80;;
36191;SDS011;22233;42.708;23.360;2022-08-04T13:28:46;2.73;;;2.43;;
36191;SDS011;22233;42.708;23.360;2022-08-04T13:31:14;4.88;;;3.03;;
36191;SDS011;22233;42.708;23.360;2022-08-04T13:33:44;4.30;;;3.08;;
36191;SDS011;22233;42.708;23.360;2022-08-04T13:36:15;2.67;;;2.40;;
36191;SDS011;22233;42.708;23.360;2022-08-04T13:38:48;3.53;;;2.70;;
36191;SDS011;22233;42.708;23.360;2022-08-04T13:41:19;3.13;;;2.50;;
36191;SDS011;22233;42.708;23.360;2022-08-04T13:43:47;3.70;;;2.60;;
36191;SDS011;22233;42.708;23.360;2022-08-04T13:46:16;3.85;;;2.70;;
36191;SDS011;22233;42.708;23.360;2022-08-04T13:48:44;3.28;;;2.80;;
36191;SDS011;22233;42.708;23.360;2022-08-04T13:51:14;2.92;;;2.67;;
36191;SDS011;22233;42.708;23.360;2022-08-04T13:53:42;5.05;;;2.75;;
36191;SDS011;22233;42.708;23.360;2022-08-04T13:56:08;3.23;;;2.83;;
36191;SDS011;22233;42.708;23.360;2022-08-04T13:58:43;3.58;;;2.40;;
36191;SDS011;22233;42.708;23.360;2022-08-04T14:01:19;4.55;;;2.40;;
36191;SDS011;22233;42.708;23.360;2022-08-04T14:06:17;4.43;;;2.50;;
36191;SDS011;22233;42.708;23.360;2022-08-04T14:08:50;3.42;;;3.00;;
36191;SDS011;22233;42.708;23.360;2022-08-04T14:11:30;2.80;;;2.38;;
36191;SDS011;22233;42.708;23.360;2022-08-04T14:13:59;2.78;;;2.58;;
36191;SDS011;22233;42.708;23.360;2022-08-04T14:16:25;2.55;;;2.35;;
36191;SDS011;22233;42.708;23.360;2022-08-04T14:18:56;2.70;;;2.50;;
36191;SDS011;22233;42.708;23.360;2022-08-04T14:21:25;2.78;;;2.58;;
36191;SDS011;22233;42.708;23.360;2022-08-04T14:23:52;3.30;;;2.73;;
36191;SDS011;22233;42.708;23.360;2022-08-04T14:26:30;2.90;;;2.60;;
36191;SDS011;22233;42.708;23.360;2022-08-04T14:29:08;4.43;;;2.97;;
36191;SDS011;22233;42.708;23.360;2022-08-04T14:31:35;3.47;;;3.17;;
36191;SDS011;22233;42.708;23.360;2022-08-04T14:34:00;3.03;;;2.70;;
36191;SDS011;22233;42.708;23.360;2022-08-04T14:36:26;4.07;;;2.50;;
36191;SDS011;22233;42.708;23.360;2022-08-04T14:38:52;3.37;;;2.23;;
36191;SDS011;22233;42.708;23.360;2022-08-04T14:41:21;5.20;;;3.70;;
36191;SDS011;22233;42.708;23.360;2022-08-04T14:43:50;3.13;;;2.67;;
36191;SDS011;22233;42.708;23.360;2022-08-04T14:46:18;3.38;;;2.78;;
36191;SDS011;22233;42.708;23.360;2022-08-04T14:49:00;3.20;;;2.50;;
36191;SDS011;22233;42.708;23.360;2022-08-04T14:51:25;6.07;;;2.90;;
36191;SDS011;22233;42.708;23.360;2022-08-04T14:53:51;4.70;;;2.30;;
36191;SDS011;22233;42.708;23.360;2022-08-04T14:56:18;3.08;;;2.40;;
36191;SDS011;22233;42.708;23.360;2022-08-04T14:58:44;2.80;;;2.60;;
36191;SDS011;22233;42.708;23.360;2022-08-04T15:01:10;2.90;;;2.70;;
36191;SDS011;22233;42.708;23.360;2022-08-04T15:03:38;2.88;;;2.05;;
36191;SDS011;22233;42.708;23.360;2022-08-04T15:06:05;3.97;;;2.75;;
36191;SDS011;22233;42.708;23.360;2022-08-04T15:08:31;2.47;;;2.27;;
36191;SDS011;22233;42.708;23.360;2022-08-04T15:10:58;3.85;;;2.45;;
36191;SDS011;22233;42.708;23.360;2022-08-04T15:13:26;4.40;;;2.92;;
36191;SDS011;22233;42.708;23.360;2022-08-04T15:15:52;2.83;;;2.63;;
36191;SDS011;22233;42.708;23.360;2022-08-04T15:18:18;5.77;;;3.63;;
36191;SDS011;22233;42.708;23.360;2022-08-04T15:20:44;5.80;;;3.50;;
36191;SDS011;22233;42.708;23.360;2022-08-04T15:23:10;2.97;;;2.55;;
36191;SDS011;22233;42.708;23.360;2022-08-04T15:25:44;3.67;;;2.63;;
36191;SDS011;22233;42.708;23.360;2022-08-04T15:28:15;4.43;;;2.75;;
36191;SDS011;22233;42.708;23.360;2022-08-04T15:30:44;2.95;;;2.53;;
36191;SDS011;22233;42.708;23.360;2022-08-04T15:33:12;8.43;;;4.32;;
36191;SDS011;22233;42.708;23.360;2022-08-04T15:35:42;10.45;;;5.07;;
36191;SDS011;22233;42.708;23.360;2022-08-04T15:40:56;11.05;;;3.90;;
36191;SDS011;22233;42.708;23.360;2022-08-04T15:49:32;5.38;;;3.08;;
36191;SDS011;22233;42.708;23.360;2022-08-04T15:52:05;7.00;;;3.20;;
36191;SDS011;22233;42.708;23.360;2022-08-04T15:54:33;5.35;;;3.10;;
36191;SDS011;22233;42.708;23.360;2022-08-04T15:57:00;5.18;;;3.40;;
36191;SDS011;22233;42.708;23.360;2022-08-04T16:07:54;9.10;;;5.43;;
36191;SDS011;22233;42.708;23.360;2022-08-04T16:13:17;13.40;;;7.13;;
36191;SDS011;22233;42.708;23.360;2022-08-04T16:15:52;11.10;;;6.88;;
36191;SDS011;22233;42.708;23.360;2022-08-04T16:20:55;5.53;;;3.75;;
36191;SDS011;22233;42.708;23.360;2022-08-04T16:29:03;5.70;;;4.35;;
36191;SDS011;22233;42.708;23.360;2022-08-04T16:37:07;5.07;;;3.72;;
36191;SDS011;22233;42.708;23.360;2022-08-04T16:39:34;5.28;;;3.90;;
36191;SDS011;22233;42.708;23.360;2022-08-04T16:42:00;4.13;;;3.53;;
36191;SDS011;22233;42.708;23.360;2022-08-04T16:45:02;4.03;;;3.72;;
36191;SDS011;22233;42.708;23.360;2022-08-04T16:50:14;3.90;;;3.58;;
36191;SDS011;22233;42.708;23.360;2022-08-04T16:52:50;4.72;;;3.33;;
36191;SDS011;22233;42.708;23.360;2022-08-04T16:55:17;3.33;;;3.03;;
36191;SDS011;22233;42.708;23.360;2022-08-04T16:57:53;5.60;;;3.67;;
36191;SDS011;22233;42.708;23.360;2022-08-04T17:00:32;5.65;;;2.97;;
36191;SDS011;22233;42.708;23.360;2022-08-04T17:03:03;4.80;;;3.10;;
36191;SDS011;22233;42.708;23.360;2022-08-04T17:05:30;5.05;;;3.35;;
36191;SDS011;22233;42.708;23.360;2022-08-04T17:07:56;5.07;;;3.50;;
36191;SDS011;22233;42.708;23.360;2022-08-04T17:10:42;5.70;;;3.38;;
36191;SDS011;22233;42.708;23.360;2022-08-04T17:15:46;4.20;;;3.38;;
36191;SDS011;22233;42.708;23.360;2022-08-04T17:18:17;3.40;;;3.10;;
36191;SDS011;22233;42.708;23.360;2022-08-04T17:20:45;6.35;;;3.15;;
36191;SDS011;22233;42.708;23.360;2022-08-04T17:26:04;3.55;;;3.17;;
36191;SDS011;22233;42.708;23.360;2022-08-04T17:28:32;3.45;;;3.08;;
36191;SDS011;22233;42.708;23.360;2022-08-04T17:30:59;5.90;;;3.33;;
36191;SDS011;22233;42.708;23.360;2022-08-04T17:33:25;5.32;;;3.60;;
36191;SDS011;22233;42.708;23.360;2022-08-04T17:35:55;4.13;;;3.72;;
36191;SDS011;22233;42.708;23.360;2022-08-04T17:38:27;3.85;;;3.22;;
36191;SDS011;22233;42.708;23.360;2022-08-04T17:40:58;7.70;;;3.85;;
36191;SDS011;22233;42.708;23.360;2022-08-04T17:43:42;4.22;;;3.20;;
36191;SDS011;22233;42.708;23.360;2022-08-04T17:48:58;5.10;;;3.60;;
36191;SDS011;22233;42.708;23.360;2022-08-04T17:51:29;5.20;;;3.90;;
36191;SDS011;22233;42.708;23.360;2022-08-04T17:54:05;6.68;;;3.90;;
36191;SDS011;22233;42.708;23.360;2022-08-04T17:56:33;5.63;;;3.47;;
36191;SDS011;22233;42.708;23.360;2022-08-04T17:59:13;7.78;;;3.72;;
36191;SDS011;22233;42.708;23.360;2022-08-04T18:01:41;4.65;;;3.83;;
36191;SDS011;22233;42.708;23.360;2022-08-04T18:04:25;8.13;;;3.42;;
36191;SDS011;22233;42.708;23.360;2022-08-04T18:06:52;4.57;;;3.90;;
36191;SDS011;22233;42.708;23.360;2022-08-04T18:09:26;7.43;;;3.78;;
36191;SDS011;22233;42.708;23.360;2022-08-04T18:11:57;4.90;;;3.90;;
36191;SDS011;22233;42.708;23.360;2022-08-04T18:14:35;7.95;;;4.32;;
36191;SDS011;22233;42.708;23.360;2022-08-04T18:17:12;4.50;;;4.07;;
36191;SDS011;22233;42.708;23.360;2022-08-04T18:19:38;5.93;;;4.15;;
36191;SDS011;22233;42.708;23.360;2022-08-04T18:22:15;7.10;;;5.00;;
36191;SDS011;22233;42.708;23.360;2022-08-04T18:24:41;9.13;;;5.85;;
36191;SDS011;22233;42.708;23.360;2022-08-04T18:27:06;7.57;;;5.18;;
36191;SDS011;22233;42.708;23.360;2022-08-04T18:29:35;6.22;;;5.63;;
36191;SDS011;22233;42.708;23.360;2022-08-04T18:32:00;13.38;;;11.05;;
36191;SDS011;22233;42.708;23.360;2022-08-04T18:34:26;9.40;;;5.45;;
36191;SDS011;22233;42.708;23.360;2022-08-04T18:36:51;9.40;;;8.18;;
36191;SDS011;22233;42.708;23.360;2022-08-04T18:39:16;7.80;;;6.40;;
36191;SDS011;22233;42.708;23.360;2022-08-04T18:41:43;6.40;;;5.80;;
36191;SDS011;22233;42.708;23.360;2022-08-04T18:44:09;11.25;;;6.55;;
36191;SDS011;22233;42.708;23.360;2022-08-04T18:46:35;11.98;;;7.85;;
36191;SDS011;22233;42.708;23.360;2022-08-04T18:49:00;11.07;;;7.13;;
36191;SDS011;22233;42.708;23.360;2022-08-04T18:51:25;7.72;;;6.68;;
36191;SDS011;22233;42.708;23.360;2022-08-04T18:53:51;11.75;;;7.45;;
36191;SDS011;22233;42.708;23.360;2022-08-04T18:56:17;11.38;;;7.45;;
36191;SDS011;22233;42.708;23.360;2022-08-04T18:58:43;9.68;;;6.57;;
36191;SDS011;22233;42.708;23.360;2022-08-04T19:01:08;9.10;;;7.32;;
36191;SDS011;22233;42.708;23.360;2022-08-04T19:03:35;11.32;;;7.93;;
36191;SDS011;22233;42.708;23.360;2022-08-04T19:06:01;10.43;;;5.88;;
36191;SDS011;22233;42.708;23.360;2022-08-04T19:08:27;7.25;;;6.45;;
36191;SDS011;22233;42.708;23.360;2022-08-04T19:10:54;8.10;;;5.97;;
36191;SDS011;22233;42.708;23.360;2022-08-04T19:13:19;10.07;;;8.23;;
36191;SDS011;22233;42.708;23.360;2022-08-04T19:15:45;12.07;;;7.38;;
36191;SDS011;22233;42.708;23.360;2022-08-04T19:18:10;9.27;;;7.10;;
36191;SDS011;22233;42.708;23.360;2022-08-04T19:20:35;15.07;;;8.63;;
36191;SDS011;22233;42.708;23.360;2022-08-04T19:23:01;10.20;;;7.38;;
36191;SDS011;22233;42.708;23.360;2022-08-04T19:25:26;15.60;;;10.65;;
36191;SDS011;22233;42.708;23.360;2022-08-04T19:27:52;11.32;;;6.75;;
36191;SDS011;22233;42.708;23.360;2022-08-04T19:30:17;10.98;;;7.72;;
36191;SDS011;22233;42.708;23.360;2022-08-04T19:32:42;10.77;;;6.35;;
36191;SDS011;22233;42.708;23.360;2022-08-04T19:35:08;10.98;;;6.05;;
36191;SDS011;22233;42.708;23.360;2022-08-04T19:37:33;19.17;;;11.32;;
36191;SDS011;22233;42.708;23.360;2022-08-04T19:39:59;18.98;;;12.95;;
36191;SDS011;22233;42.708;23.360;2022-08-04T19:42:24;14.27;;;8.25;;
36191;SDS011;22233;42.708;23.360;2022-08-04T19:44:49;14.50;;;9.57;;